sensor_id;sensor_type;location;lat;lon;timestamp;pressure;altitude;pressure_sealevel;temperature;humidity
29045;BME280;16133;49.486;12.176;2023-02-13T00:01:33;99422.59;;;1.87;100.00
29045;BME280;16133;49.486;12.176;2023-02-13T00:03:59;99419.03;;;1.88;100.00
29045;BME280;16133;49.486;12.176;2023-02-13T00:06:24;99415.19;;;1.78;100.00
29045;BME280;16133;49.486;12.176;2023-02-13T00:08:50;99418.13;;;1.72;100.00
29045;BME280;16133;49.486;12.176;2023-02-13T00:11:15;99412.09;;;1.70;100.00
29045;BME280;16133;49.486;12.176;2023-02-13T00:13:41;99413.00;;;1.69;100.00
29045;BME280;16133;49.486;12.176;2023-02-13T00:16:06;99417.41;;;1.68;100.00
29045;BME280;16133;49.486;12.176;2023-02-13T00:18:34;99404.41;;;1.67;100.00
29045;BME280;16133;49.486;12.176;2023-02-13T00:21:03;99406.69;;;1.73;100.00
29045;BME280;16133;49.486;12.176;2023-02-13T00:23:30;99406.78;;;1.71;100.00
29045;BME280;16133;49.486;12.176;2023-02-13T00:25:56;99404.09;;;1.73;100.00
29045;BME280;16133;49.486;12.176;2023-02-13T00:28:22;99403.09;;;1.75;100.00
29045;BME280;16133;49.486;12.176;2023-02-13T00:30:47;99403.16;;;1.74;100.00
29045;BME280;16133;49.486;12.176;2023-02-13T00:33:13;99404.19;;;1.71;100.00
29045;BME280;16133;49.486;12.176;2023-02-13T00:35:38;99400.50;;;1.75;100.00
29045;BME280;16133;49.486;12.176;2023-02-13T00:38:04;99406.56;;;1.76;100.00
29045;BME280;16133;49.486;12.176;2023-02-13T00:40:29;99403.97;;;1.76;100.00
29045;BME280;16133;49.486;12.176;2023-02-13T00:42:54;99409.31;;;1.73;100.00
29045;BME280;16133;49.486;12.176;2023-02-13T00:45:20;99408.63;;;1.69;100.00
29045;BME280;16133;49.486;12.176;2023-02-13T00:47:45;99411.34;;;1.68;100.00
29045;BME280;16133;49.486;12.176;2023-02-13T00:50:10;99415.03;;;1.64;100.00
29045;BME280;16133;49.486;12.176;2023-02-13T00:52:36;99415.88;;;1.64;100.00
29045;BME280;16133;49.486;12.176;2023-02-13T00:55:01;99406.09;;;1.68;100.00
29045;BME280;16133;49.486;12.176;2023-02-13T00:57:26;99402.00;;;1.62;100.00
29045;BME280;16133;49.486;12.176;2023-02-13T00:59:53;99406.59;;;1.57;100.00
29045;BME280;16133;49.486;12.176;2023-02-13T01:02:18;99401.31;;;1.59;100.00
29045;BME280;16133;49.486;12.176;2023-02-13T01:04:44;99404.16;;;1.54;100.00
29045;BME280;16133;49.486;12.176;2023-02-13T01:07:09;99405.78;;;1.57;100.00
29045;BME280;16133;49.486;12.176;2023-02-13T01:09:34;99403.28;;;1.54;100.00
29045;BME280;16133;49.486;12.176;2023-02-13T01:12:00;99407.59;;;1.55;100.00
29045;BME280;16133;49.486;12.176;2023-02-13T01:14:25;99412.94;;;1.53;100.00
29045;BME280;16133;49.486;12.176;2023-02-13T01:16:50;99410.38;;;1.52;100.00
29045;BME280;16133;49.486;12.176;2023-02-13T01:19:16;99415.78;;;1.49;100.00
29045;BME280;16133;49.486;12.176;2023-02-13T01:21:42;99408.41;;;1.57;100.00
29045;BME280;16133;49.486;12.176;2023-02-13T01:24:08;99413.22;;;1.47;100.00
29045;BME280;16133;49.486;12.176;2023-02-13T01:26:33;99412.38;;;1.47;100.00
29045;BME280;16133;49.486;12.176;2023-02-13T01:28:58;99414.06;;;1.48;100.00
29045;BME280;16133;49.486;12.176;2023-02-13T01:31:24;99415.19;;;1.42;100.00
29045;BME280;16133;49.486;12.176;2023-02-13T01:33:50;99424.19;;;1.36;100.00
29045;BME280;16133;49.486;12.176;2023-02-13T01:36:15;99389.94;;;1.24;100.00
29045;BME280;16133;49.486;12.176;2023-02-13T01:38:41;99420.88;;;1.33;100.00
29045;BME280;16133;49.486;12.176;2023-02-13T01:41:07;99411.41;;;1.30;100.00
29045;BME280;16133;49.486;12.176;2023-02-13T01:43:49;99416.63;;;1.30;100.00
29045;BME280;16133;49.486;12.176;2023-02-13T01:46:19;99405.25;;;1.31;100.00
29045;BME280;16133;49.486;12.176;2023-02-13T01:48:47;99401.88;;;1.29;100.00
29045;BME280;16133;49.486;12.176;2023-02-13T01:51:19;99395.09;;;1.25;100.00
29045;BME280;16133;49.486;12.176;2023-02-13T01:53:51;99405.63;;;1.24;100.00
29045;BME280;16133;49.486;12.176;2023-02-13T01:58:55;99401.09;;;1.27;100.00
29045;BME280;16133;49.486;12.176;2023-02-13T02:01:23;99399.25;;;1.29;100.00
29045;BME280;16133;49.486;12.176;2023-02-13T02:03:56;99396.06;;;1.23;100.00
29045;BME280;16133;49.486;12.176;2023-02-13T02:06:33;99394.69;;;1.16;100.00
29045;BME280;16133;49.486;12.176;2023-02-13T02:09:14;99393.00;;;1.15;100.00
29045;BME280;16133;49.486;12.176;2023-02-13T02:11:55;99393.81;;;1.15;100.00
29045;BME280;16133;49.486;12.176;2023-02-13T02:14:25;99393.91;;;1.14;100.00
29045;BME280;16133;49.486;12.176;2023-02-13T02:16:50;99399.19;;;1.12;100.00
29045;BME280;16133;49.486;12.176;2023-02-13T02:21:59;99394.81;;;1.13;100.00
29045;BME280;16133;49.486;12.176;2023-02-13T02:24:51;99392.41;;;1.08;100.00
29045;BME280;16133;49.486;12.176;2023-02-13T02:49:50;99380.72;;;0.98;100.00
29045;BME280;16133;49.486;12.176;2023-02-13T02:55:34;99385.44;;;0.90;100.00
29045;BME280;16133;49.486;12.176;2023-02-13T02:58:12;99377.13;;;0.82;100.00
29045;BME280;16133;49.486;12.176;2023-02-13T03:01:02;99381.34;;;0.84;100.00
29045;BME280;16133;49.486;12.176;2023-02-13T03:03:48;99373.75;;;0.80;100.00
29045;BME280;16133;49.486;12.176;2023-02-13T03:09:18;99382.69;;;0.93;100.00
29045;BME280;16133;49.486;12.176;2023-02-13T03:12:04;99377.22;;;0.80;100.00
29045;BME280;16133;49.486;12.176;2023-02-13T03:14:48;99372.09;;;0.77;100.00
29045;BME280;16133;49.486;12.176;2023-02-13T03:17:16;99365.91;;;0.80;100.00
29045;BME280;16133;49.486;12.176;2023-02-13T03:20:03;99368.72;;;0.75;100.00
29045;BME280;16133;49.486;12.176;2023-02-13T03:23:14;99365.09;;;0.78;100.00
29045;BME280;16133;49.486;12.176;2023-02-13T03:28:57;99366.81;;;0.79;100.00
29045;BME280;16133;49.486;12.176;2023-02-13T03:34:24;99371.19;;;0.78;100.00
29045;BME280;16133;49.486;12.176;2023-02-13T03:37:13;99372.19;;;0.76;100.00
29045;BME280;16133;49.486;12.176;2023-02-13T03:40:06;99378.97;;;0.80;100.00
29045;BME280;16133;49.486;12.176;2023-02-13T03:42:38;99382.53;;;0.77;100.00
29045;BME280;16133;49.486;12.176;2023-02-13T03:47:54;99389.63;;;0.75;100.00
29045;BME280;16133;49.486;12.176;2023-02-13T03:50:22;99379.38;;;0.71;100.00
29045;BME280;16133;49.486;12.176;2023-02-13T03:52:59;99381.94;;;0.72;100.00
29045;BME280;16133;49.486;12.176;2023-02-13T03:55:33;99378.13;;;0.79;100.00
29045;BME280;16133;49.486;12.176;2023-02-13T03:58:27;99379.22;;;0.74;100.00
29045;BME280;16133;49.486;12.176;2023-02-13T04:01:14;99377.56;;;0.73;100.00
29045;BME280;16133;49.486;12.176;2023-02-13T04:03:48;99384.47;;;0.74;100.00
29045;BME280;16133;49.486;12.176;2023-02-13T04:06:19;99378.16;;;0.78;100.00
29045;BME280;16133;49.486;12.176;2023-02-13T04:08:46;99384.47;;;0.74;100.00
29045;BME280;16133;49.486;12.176;2023-02-13T04:11:24;99390.94;;;0.65;100.00
29045;BME280;16133;49.486;12.176;2023-02-13T04:14:00;99387.28;;;0.69;100.00
29045;BME280;16133;49.486;12.176;2023-02-13T04:16:32;99382.69;;;0.74;100.00
29045;BME280;16133;49.486;12.176;2023-02-13T04:19:00;99397.66;;;0.71;100.00
29045;BME280;16133;49.486;12.176;2023-02-13T04:21:26;99386.56;;;0.66;100.00
29045;BME280;16133;49.486;12.176;2023-02-13T04:23:51;99389.97;;;0.68;100.00
29045;BME280;16133;49.486;12.176;2023-02-13T04:26:19;99377.56;;;0.73;100.00
29045;BME280;16133;49.486;12.176;2023-02-13T04:28:45;99380.28;;;0.70;100.00
29045;BME280;16133;49.486;12.176;2023-02-13T04:31:10;99375.66;;;0.76;100.00
29045;BME280;16133;49.486;12.176;2023-02-13T04:33:36;99379.03;;;0.78;100.00
29045;BME280;16133;49.486;12.176;2023-02-13T04:36:02;99378.03;;;0.81;100.00
29045;BME280;16133;49.486;12.176;2023-02-13T04:38:27;99370.28;;;0.79;100.00
29045;BME280;16133;49.486;12.176;2023-02-13T04:40:52;99371.97;;;0.80;100.00
29045;BME280;16133;49.486;12.176;2023-02-13T04:43:18;99370.97;;;0.83;100.00
29045;BME280;16133;49.486;12.176;2023-02-13T04:45:47;99383.25;;;0.81;100.00
29045;BME280;16133;49.486;12.176;2023-02-13T04:48:12;99382.44;;;0.80;100.00
29045;BME280;16133;49.486;12.176;2023-02-13T04:50:38;99379.53;;;0.86;100.00
29045;BME280;16133;49.486;12.176;2023-02-13T04:53:03;99379.53;;;0.86;100.00
29045;BME280;16133;49.486;12.176;2023-02-13T04:55:29;99383.25;;;0.81;100.00
29045;BME280;16133;49.486;12.176;2023-02-13T04:57:54;99383.34;;;0.79;100.00
29045;BME280;16133;49.486;12.176;2023-02-13T05:00:25;99386.88;;;0.78;100.00
29045;BME280;16133;49.486;12.176;2023-02-13T05:02:51;99389.69;;;0.74;100.00
29045;BME280;16133;49.486;12.176;2023-02-13T05:05:18;99384.66;;;0.69;100.00
29045;BME280;16133;49.486;12.176;2023-02-13T05:07:44;99385.84;;;0.62;100.00
29045;BME280;16133;49.486;12.176;2023-02-13T05:10:10;99381.94;;;0.72;100.00
29045;BME280;16133;49.486;12.176;2023-02-13T05:12:36;99393.50;;;0.67;100.00
29045;BME280;16133;49.486;12.176;2023-02-13T05:15:01;99389.13;;;0.67;100.00
29045;BME280;16133;49.486;12.176;2023-02-13T05:17:26;99388.97;;;0.70;100.00
29045;BME280;16133;49.486;12.176;2023-02-13T05:19:52;99387.91;;;0.74;100.00
29045;BME280;16133;49.486;12.176;2023-02-13T05:22:17;99391.94;;;0.63;100.00
29045;BME280;16133;49.486;12.176;2023-02-13T05:25:01;99400.69;;;0.62;100.00
29045;BME280;16133;49.486;12.176;2023-02-13T05:27:27;99390.13;;;0.65;100.00
29045;BME280;16133;49.486;12.176;2023-02-13T05:29:52;99390.03;;;0.66;100.00
29045;BME280;16133;49.486;12.176;2023-02-13T05:32:17;99388.41;;;0.64;100.00
29045;BME280;16133;49.486;12.176;2023-02-13T05:34:43;99396.31;;;0.62;100.00
29045;BME280;16133;49.486;12.176;2023-02-13T05:37:08;99393.69;;;0.62;100.00
29045;BME280;16133;49.486;12.176;2023-02-13T05:39:34;99401.47;;;0.64;100.00
29045;BME280;16133;49.486;12.176;2023-02-13T05:41:59;99405.84;;;0.63;100.00
29045;BME280;16133;49.486;12.176;2023-02-13T05:44:24;99411.84;;;0.65;100.00
29045;BME280;16133;49.486;12.176;2023-02-13T05:46:50;99404.09;;;0.64;100.00
29045;BME280;16133;49.486;12.176;2023-02-13T05:49:17;99405.78;;;0.65;100.00
29045;BME280;16133;49.486;12.176;2023-02-13T05:51:42;99408.41;;;0.65;100.00
29045;BME280;16133;49.486;12.176;2023-02-13T05:54:08;99404.84;;;0.66;100.00
29045;BME280;16133;49.486;12.176;2023-02-13T05:56:33;99412.78;;;0.64;100.00
29045;BME280;16133;49.486;12.176;2023-02-13T05:58:59;99415.94;;;0.71;100.00
29045;BME280;16133;49.486;12.176;2023-02-13T06:01:24;99412.56;;;0.69;100.00
29045;BME280;16133;49.486;12.176;2023-02-13T06:03:50;99416.09;;;0.68;100.00
29045;BME280;16133;49.486;12.176;2023-02-13T06:06:16;99413.41;;;0.69;100.00
29045;BME280;16133;49.486;12.176;2023-02-13T06:08:42;99414.41;;;0.67;100.00
29045;BME280;16133;49.486;12.176;2023-02-13T06:11:08;99417.81;;;0.69;100.00
29045;BME280;16133;49.486;12.176;2023-02-13T06:13:34;99429.66;;;0.76;100.00
29045;BME280;16133;49.486;12.176;2023-02-13T06:15:59;99423.03;;;0.69;100.00
29045;BME280;16133;49.486;12.176;2023-02-13T06:18:25;99429.22;;;0.66;100.00
29045;BME280;16133;49.486;12.176;2023-02-13T06:20:50;99433.59;;;0.66;100.00
29045;BME280;16133;49.486;12.176;2023-02-13T06:23:15;99426.69;;;0.65;100.00
29045;BME280;16133;49.486;12.176;2023-02-13T06:25:41;99436.16;;;0.67;100.00
29045;BME280;16133;49.486;12.176;2023-02-13T06:28:06;99439.41;;;0.72;100.00
29045;BME280;16133;49.486;12.176;2023-02-13T06:30:32;99436.72;;;0.74;100.00
29045;BME280;16133;49.486;12.176;2023-02-13T06:32:58;99434.94;;;0.74;100.00
29045;BME280;16133;49.486;12.176;2023-02-13T06:35:23;99438.25;;;0.78;100.00
29045;BME280;16133;49.486;12.176;2023-02-13T06:37:49;99431.47;;;0.74;100.00
29045;BME280;16133;49.486;12.176;2023-02-13T06:40:14;99437.31;;;0.80;100.00
29045;BME280;16133;49.486;12.176;2023-02-13T06:42:41;99439.81;;;0.82;100.00
29045;BME280;16133;49.486;12.176;2023-02-13T06:45:07;99441.59;;;0.81;100.00
29045;BME280;16133;49.486;12.176;2023-02-13T06:47:32;99446.81;;;0.81;100.00
29045;BME280;16133;49.486;12.176;2023-02-13T06:49:58;99444.00;;;0.86;100.00
29045;BME280;16133;49.486;12.176;2023-02-13T06:52:23;99451.69;;;0.89;100.00
29045;BME280;16133;49.486;12.176;2023-02-13T06:54:48;99456.81;;;0.92;100.00
29045;BME280;16133;49.486;12.176;2023-02-13T06:57:14;99453.41;;;0.90;100.00
29045;BME280;16133;49.486;12.176;2023-02-13T06:59:40;99451.28;;;0.98;100.00
29045;BME280;16133;49.486;12.176;2023-02-13T07:02:05;99447.25;;;0.91;100.00
29045;BME280;16133;49.486;12.176;2023-02-13T07:04:30;99453.00;;;0.99;100.00
29045;BME280;16133;49.486;12.176;2023-02-13T07:06:56;99453.69;;;1.03;100.00
29045;BME280;16133;49.486;12.176;2023-02-13T07:09:22;99461.19;;;1.10;100.00
29045;BME280;16133;49.486;12.176;2023-02-13T07:11:48;99446.34;;;1.11;100.00
29045;BME280;16133;49.486;12.176;2023-02-13T07:14:13;99450.44;;;1.16;100.00
29045;BME280;16133;49.486;12.176;2023-02-13T07:16:39;99447.53;;;1.22;100.00
29045;BME280;16133;49.486;12.176;2023-02-13T07:19:04;99452.53;;;1.27;100.00
29045;BME280;16133;49.486;12.176;2023-02-13T07:21:29;99454.09;;;1.31;100.00
29045;BME280;16133;49.486;12.176;2023-02-13T07:23:55;99451.19;;;1.37;100.00
29045;BME280;16133;49.486;12.176;2023-02-13T07:26:20;99459.75;;;1.40;100.00
29045;BME280;16133;49.486;12.176;2023-02-13T07:28:46;99470.06;;;1.43;100.00
29045;BME280;16133;49.486;12.176;2023-02-13T07:31:11;99470.06;;;1.43;100.00
29045;BME280;16133;49.486;12.176;2023-02-13T07:33:37;99475.00;;;1.50;100.00
29045;BME280;16133;49.486;12.176;2023-02-13T07:36:02;99474.78;;;1.54;100.00
29045;BME280;16133;49.486;12.176;2023-02-13T07:38:29;99485.72;;;1.62;100.00
29045;BME280;16133;49.486;12.176;2023-02-13T07:41:00;99480.34;;;1.65;100.00
29045;BME280;16133;49.486;12.176;2023-02-13T07:43:26;99482.25;;;1.62;100.00
29045;BME280;16133;49.486;12.176;2023-02-13T07:45:52;99481.03;;;1.69;100.00
29045;BME280;16133;49.486;12.176;2023-02-13T07:48:23;99484.22;;;1.75;100.00
29045;BME280;16133;49.486;12.176;2023-02-13T07:50:51;99477.63;;;1.85;100.00
29045;BME280;16133;49.486;12.176;2023-02-13T07:53:16;99482.56;;;1.91;100.00
29045;BME280;16133;49.486;12.176;2023-02-13T07:55:42;99485.09;;;1.93;100.00
29045;BME280;16133;49.486;12.176;2023-02-13T07:58:07;99479.78;;;1.95;100.00
29045;BME280;16133;49.486;12.176;2023-02-13T08:00:32;99480.50;;;1.98;100.00
29045;BME280;16133;49.486;12.176;2023-02-13T08:03:01;99481.88;;;2.05;100.00
29045;BME280;16133;49.486;12.176;2023-02-13T08:05:28;99487.59;;;2.13;100.00
29045;BME280;16133;49.486;12.176;2023-02-13T08:07:53;99490.03;;;2.16;100.00
29045;BME280;16133;49.486;12.176;2023-02-13T08:10:19;99490.66;;;2.21;100.00
29045;BME280;16133;49.486;12.176;2023-02-13T08:13:06;99486.97;;;2.25;100.00
29045;BME280;16133;49.486;12.176;2023-02-13T08:15:32;99484.94;;;2.30;100.00
29045;BME280;16133;49.486;12.176;2023-02-13T08:17:58;99487.34;;;2.35;100.00
29045;BME280;16133;49.486;12.176;2023-02-13T08:20:23;99483.81;;;2.36;100.00
29045;BME280;16133;49.486;12.176;2023-02-13T08:22:48;99482.34;;;2.48;100.00
29045;BME280;16133;49.486;12.176;2023-02-13T08:25:14;99490.81;;;2.53;100.00
29045;BME280;16133;49.486;12.176;2023-02-13T08:27:40;99486.97;;;2.60;100.00
29045;BME280;16133;49.486;12.176;2023-02-13T08:30:07;99482.22;;;2.66;100.00
29045;BME280;16133;49.486;12.176;2023-02-13T08:32:32;99486.22;;;2.73;100.00
29045;BME280;16133;49.486;12.176;2023-02-13T08:34:58;99474.75;;;2.76;100.00
29045;BME280;16133;49.486;12.176;2023-02-13T08:37:23;99488.88;;;2.89;100.00
29045;BME280;16133;49.486;12.176;2023-02-13T08:39:48;99484.72;;;3.02;100.00
29045;BME280;16133;49.486;12.176;2023-02-13T08:42:14;99486.66;;;3.14;100.00
29045;BME280;16133;49.486;12.176;2023-02-13T08:44:40;99481.84;;;3.22;100.00
29045;BME280;16133;49.486;12.176;2023-02-13T08:47:07;99480.50;;;3.31;100.00
29045;BME280;16133;49.486;12.176;2023-02-13T08:49:33;99485.25;;;3.40;100.00
29045;BME280;16133;49.486;12.176;2023-02-13T08:51:59;99481.09;;;3.52;100.00
29045;BME280;16133;49.486;12.176;2023-02-13T08:54:25;99482.28;;;3.62;100.00
29045;BME280;16133;49.486;12.176;2023-02-13T08:56:52;99481.84;;;3.69;100.00
29045;BME280;16133;49.486;12.176;2023-02-13T08:59:17;99480.66;;;3.75;100.00
29045;BME280;16133;49.486;12.176;2023-02-13T09:01:43;99484.53;;;3.83;100.00
29045;BME280;16133;49.486;12.176;2023-02-13T09:04:08;99478.41;;;3.99;100.00
29045;BME280;16133;49.486;12.176;2023-02-13T09:06:33;99478.38;;;4.14;100.00
29045;BME280;16133;49.486;12.176;2023-02-13T09:08:59;99474.03;;;4.29;100.00
29045;BME280;16133;49.486;12.176;2023-02-13T09:11:24;99478.66;;;4.40;100.00
29045;BME280;16133;49.486;12.176;2023-02-13T09:13:53;99475.38;;;4.50;100.00
29045;BME280;16133;49.486;12.176;2023-02-13T09:16:19;99484.69;;;4.56;100.00
29045;BME280;16133;49.486;12.176;2023-02-13T09:18:48;99485.06;;;4.64;100.00
29045;BME280;16133;49.486;12.176;2023-02-13T09:21:13;99489.78;;;4.73;100.00
29045;BME280;16133;49.486;12.176;2023-02-13T09:23:39;99483.19;;;4.80;100.00
29045;BME280;16133;49.486;12.176;2023-02-13T09:26:08;99487.16;;;4.87;100.00
29045;BME280;16133;49.486;12.176;2023-02-13T09:28:34;99487.91;;;4.89;100.00
29045;BME280;16133;49.486;12.176;2023-02-13T09:31:08;99488.19;;;4.99;100.00
29045;BME280;16133;49.486;12.176;2023-02-13T09:33:34;99484.16;;;5.07;100.00
29045;BME280;16133;49.486;12.176;2023-02-13T09:36:10;99489.59;;;5.18;100.00
29045;BME280;16133;49.486;12.176;2023-02-13T09:38:36;99493.53;;;5.25;100.00
29045;BME280;16133;49.486;12.176;2023-02-13T09:41:05;99494.09;;;5.30;100.00
29045;BME280;16133;49.486;12.176;2023-02-13T09:46:17;99505.94;;;5.38;100.00
29045;BME280;16133;49.486;12.176;2023-02-13T09:48:48;99501.97;;;5.45;100.00
29045;BME280;16133;49.486;12.176;2023-02-13T09:51:17;99501.41;;;5.54;100.00
29045;BME280;16133;49.486;12.176;2023-02-13T09:53:53;99500.63;;;5.66;100.00
29045;BME280;16133;49.486;12.176;2023-02-13T09:56:26;99502.38;;;5.79;100.00
29045;BME280;16133;49.486;12.176;2023-02-13T10:01:54;99505.66;;;5.97;100.00
29045;BME280;16133;49.486;12.176;2023-02-13T10:04:44;99497.88;;;6.08;100.00
29045;BME280;16133;49.486;12.176;2023-02-13T10:10:10;99496.25;;;6.33;99.86
29045;BME280;16133;49.486;12.176;2023-02-13T10:15:26;99495.03;;;6.63;98.37
29045;BME280;16133;49.486;12.176;2023-02-13T10:18:02;99491.56;;;6.76;97.35
29045;BME280;16133;49.486;12.176;2023-02-13T10:20:40;99493.38;;;6.88;97.06
29045;BME280;16133;49.486;12.176;2023-02-13T10:28:44;99495.91;;;7.14;93.59
29045;BME280;16133;49.486;12.176;2023-02-13T10:31:18;99496.22;;;7.22;93.15
29045;BME280;16133;49.486;12.176;2023-02-13T10:33:52;99499.03;;;7.32;92.56
29045;BME280;16133;49.486;12.176;2023-02-13T10:36:36;99492.03;;;7.44;91.66
29045;BME280;16133;49.486;12.176;2023-02-13T10:44:48;99489.16;;;7.59;88.42
29045;BME280;16133;49.486;12.176;2023-02-13T10:50:43;99481.47;;;7.80;86.86
29045;BME280;16133;49.486;12.176;2023-02-13T10:56:11;99481.06;;;7.97;87.59
29045;BME280;16133;49.486;12.176;2023-02-13T11:04:10;99474.56;;;8.38;86.02
29045;BME280;16133;49.486;12.176;2023-02-13T11:06:39;99478.69;;;8.53;84.54
29045;BME280;16133;49.486;12.176;2023-02-13T11:09:07;99476.06;;;8.64;84.01
29045;BME280;16133;49.486;12.176;2023-02-13T11:11:38;99485.50;;;8.79;83.13
29045;BME280;16133;49.486;12.176;2023-02-13T11:19:19;99472.03;;;9.38;81.80
29045;BME280;16133;49.486;12.176;2023-02-13T11:21:47;99471.66;;;9.53;80.18
29045;BME280;16133;49.486;12.176;2023-02-13T11:24:20;99470.56;;;9.67;79.96
29045;BME280;16133;49.486;12.176;2023-02-13T11:26:51;99472.91;;;9.81;78.84
29045;BME280;16133;49.486;12.176;2023-02-13T11:29:24;99471.94;;;9.93;78.37
29045;BME280;16133;49.486;12.176;2023-02-13T11:34:31;99473.09;;;10.12;76.15
29045;BME280;16133;49.486;12.176;2023-02-13T11:39:39;99465.13;;;10.23;75.49
29045;BME280;16133;49.486;12.176;2023-02-13T11:45:01;99466.72;;;10.03;76.42
29045;BME280;16133;49.486;12.176;2023-02-13T11:47:41;99468.09;;;9.86;75.88
29045;BME280;16133;49.486;12.176;2023-02-13T11:50:23;99467.53;;;9.72;76.25
29045;BME280;16133;49.486;12.176;2023-02-13T11:52:58;99471.31;;;9.58;76.67
29045;BME280;16133;49.486;12.176;2023-02-13T11:55:36;99461.09;;;9.42;77.83
29045;BME280;16133;49.486;12.176;2023-02-13T12:00:41;99458.22;;;9.12;78.24
29045;BME280;16133;49.486;12.176;2023-02-13T12:03:26;99461.09;;;9.09;78.40
29045;BME280;16133;49.486;12.176;2023-02-13T12:08:35;99444.84;;;9.02;80.44
29045;BME280;16133;49.486;12.176;2023-02-13T12:11:06;99445.78;;;9.01;80.07
29045;BME280;16133;49.486;12.176;2023-02-13T12:13:35;99439.03;;;9.08;79.37
29045;BME280;16133;49.486;12.176;2023-02-13T12:16:09;99425.84;;;9.20;79.60
29045;BME280;16133;49.486;12.176;2023-02-13T12:18:40;99431.72;;;9.34;77.57
29045;BME280;16133;49.486;12.176;2023-02-13T12:21:23;99442.84;;;9.60;77.46
29045;BME280;16133;49.486;12.176;2023-02-13T12:26:38;99427.00;;;10.13;75.38
29045;BME280;16133;49.486;12.176;2023-02-13T12:39:34;99422.69;;;10.94;70.19
29045;BME280;16133;49.486;12.176;2023-02-13T12:47:30;99407.50;;;11.06;68.30
29045;BME280;16133;49.486;12.176;2023-02-13T12:50:24;99410.03;;;11.08;67.19
29045;BME280;16133;49.486;12.176;2023-02-13T12:56:24;99407.09;;;11.11;66.28
29045;BME280;16133;49.486;12.176;2023-02-13T12:59:17;99406.25;;;11.10;66.71
29045;BME280;16133;49.486;12.176;2023-02-13T13:01:57;99407.22;;;11.09;65.49
29045;BME280;16133;49.486;12.176;2023-02-13T13:04:33;99403.31;;;11.03;66.13
29045;BME280;16133;49.486;12.176;2023-02-13T13:07:52;99403.81;;;10.97;65.86
29045;BME280;16133;49.486;12.176;2023-02-13T13:26:29;99394.13;;;10.57;67.00
29045;BME280;16133;49.486;12.176;2023-02-13T13:28:53;99391.84;;;10.52;66.61
29045;BME280;16133;49.486;12.176;2023-02-13T13:31:21;99384.16;;;10.49;66.72
29045;BME280;16133;49.486;12.176;2023-02-13T13:33:50;99389.28;;;10.41;68.00
29045;BME280;16133;49.486;12.176;2023-02-13T13:39:49;99382.53;;;10.37;66.61
29045;BME280;16133;49.486;12.176;2023-02-13T13:42:38;99380.28;;;10.32;66.36
29045;BME280;16133;49.486;12.176;2023-02-13T13:50:23;99384.94;;;10.19;67.13
29045;BME280;16133;49.486;12.176;2023-02-13T13:58:45;99374.06;;;9.90;67.98
29045;BME280;16133;49.486;12.176;2023-02-13T14:01:15;99377.94;;;9.86;68.62
29045;BME280;16133;49.486;12.176;2023-02-13T14:03:42;99382.81;;;9.70;67.50
29045;BME280;16133;49.486;12.176;2023-02-13T14:06:14;99374.44;;;9.65;68.57
29045;BME280;16133;49.486;12.176;2023-02-13T14:11:25;99380.47;;;9.56;69.84
29045;BME280;16133;49.486;12.176;2023-02-13T14:13:51;99379.19;;;9.50;69.39
29045;BME280;16133;49.486;12.176;2023-02-13T14:16:42;99380.25;;;9.48;69.32
29045;BME280;16133;49.486;12.176;2023-02-13T14:19:31;99377.13;;;9.43;68.75
29045;BME280;16133;49.486;12.176;2023-02-13T14:24:56;99377.16;;;9.32;69.51
29045;BME280;16133;49.486;12.176;2023-02-13T14:29:50;99374.78;;;9.18;71.02
29045;BME280;16133;49.486;12.176;2023-02-13T14:32:28;99372.25;;;9.05;70.77
29045;BME280;16133;49.486;12.176;2023-02-13T14:34:59;99375.28;;;8.89;71.73
29045;BME280;16133;49.486;12.176;2023-02-13T14:37:36;99374.06;;;8.82;72.42
29045;BME280;16133;49.486;12.176;2023-02-13T14:48:58;99371.75;;;8.44;73.86
29045;BME280;16133;49.486;12.176;2023-02-13T14:51:32;99369.66;;;8.26;73.76
29045;BME280;16133;49.486;12.176;2023-02-13T14:54:04;99372.53;;;8.11;75.18
29045;BME280;16133;49.486;12.176;2023-02-13T14:56:31;99376.59;;;8.04;75.37
29045;BME280;16133;49.486;12.176;2023-02-13T14:59:09;99371.50;;;8.01;75.25
29045;BME280;16133;49.486;12.176;2023-02-13T15:01:44;99370.28;;;7.94;75.61
29045;BME280;16133;49.486;12.176;2023-02-13T15:04:29;99368.47;;;7.84;76.50
29045;BME280;16133;49.486;12.176;2023-02-13T15:07:00;99366.63;;;7.73;77.37
29045;BME280;16133;49.486;12.176;2023-02-13T15:09:37;99371.88;;;7.62;77.18
29045;BME280;16133;49.486;12.176;2023-02-13T15:12:26;99363.38;;;7.46;77.82
29045;BME280;16133;49.486;12.176;2023-02-13T15:14:52;99360.69;;;7.35;78.91
29045;BME280;16133;49.486;12.176;2023-02-13T15:17:24;99359.63;;;7.25;79.36
29045;BME280;16133;49.486;12.176;2023-02-13T15:19:52;99371.09;;;7.12;78.99
29045;BME280;16133;49.486;12.176;2023-02-13T15:22:32;99367.88;;;6.96;79.75
29045;BME280;16133;49.486;12.176;2023-02-13T15:24:59;99358.72;;;6.77;80.58
29045;BME280;16133;49.486;12.176;2023-02-13T15:27:31;99356.75;;;6.55;81.97
29045;BME280;16133;49.486;12.176;2023-02-13T15:30:04;99361.28;;;6.28;82.76
29045;BME280;16133;49.486;12.176;2023-02-13T15:32:41;99356.81;;;6.03;83.62
29045;BME280;16133;49.486;12.176;2023-02-13T15:37:45;99360.16;;;5.53;85.48
29045;BME280;16133;49.486;12.176;2023-02-13T15:40:24;99357.44;;;5.27;86.62
29045;BME280;16133;49.486;12.176;2023-02-13T15:42:51;99353.94;;;5.00;88.37
29045;BME280;16133;49.486;12.176;2023-02-13T15:45:18;99354.53;;;4.77;90.39
29045;BME280;16133;49.486;12.176;2023-02-13T15:47:45;99349.84;;;4.54;92.25
29045;BME280;16133;49.486;12.176;2023-02-13T15:50:43;99349.69;;;4.28;93.75
29045;BME280;16133;49.486;12.176;2023-02-13T15:53:13;99358.75;;;4.09;95.15
29045;BME280;16133;49.486;12.176;2023-02-13T15:55:40;99357.31;;;3.89;96.78